Rudolph, Ohio
Current Conditions -  °F | °C
As of 6:53 AM on Monday 22 Dec 2014 (Local Time) from KFDY Reporting Station
Haze Haze  
Wind Chill: 18°   Ceiling: Unl
Heat Index: 25°   Visibility: 5mi
Dew Point: 21°   Wind: 6mph
Humidity: 85%   Direction: 100°E
Pressure: 30.06"   Gusts: NA
Location:  41.3°N, 83.67°W
Report Text: KFDY 221153Z AUTO 10005KT 5SM BR CLR M04/M06 A3006 RMK AO2 SLP184 T10391061 11022 21044 55009
Loading
Personal Weather Stations






























Interactive Weather Map New forecast layout! Learn more

10-Day Weather Forecast

Advertisements
Track Severe Weather on mobile